This is the latest recevied weather packets stored in our database for station/object BARLOW-WX. If no packets are shown the sender has not sent any weather packets the latest 10 day(s).
| Time | Temp. | Humidity | Pressure | Rain* | Wind** | Luminosity | Snow |
|---|---|---|---|---|---|---|---|
| 1787732183 | 13.33° C | 88% | 986.9 hPa | 0 mm | - | - | - |
| 1787731285 | 13.33° C | 90% | 987.2 hPa | 0 mm | - | - | - |
| 1787730379 | 13.89° C | 88% | 987.4 hPa | 0 mm | - | - | - |
| 1787729485 | 13.89° C | 88% | 987.4 hPa | 0 mm | - | - | - |
| 1787728585 | 13.89° C | 88% | 987.4 hPa | 0 mm | - | - | - |
| 1787727684 | 13.89° C | 88% | 987.4 hPa | 0 mm | - | - | - |
| 1787726784 | 13.89° C | 89% | 988.4 hPa | 0 mm | - | - | - |
| 1787725885 | 13.89° C | 89% | 988.3 hPa | 0 mm | - | - | - |
| 1787724985 | 13.89° C | 89% | 988.3 hPa | 0 mm | - | - | - |
| 1787724088 | 14.44° C | 89% | 988.3 hPa | 0 mm | - | - | - |
| 1787723184 | 14.44° C | 89% | 987.8 hPa | 0 mm | - | - | - |
| 1787722285 | 14.44° C | 88% | 988.3 hPa | 0 mm | - | - | - |
| 1787721383 | 15° C | 88% | 988.3 hPa | 0 mm | - | - | - |
| 1787720480 | 15° C | 88% | 988.3 hPa | 0 mm | - | - | - |
| 1787719585 | 15° C | 85% | 988 hPa | 0 mm | - | - | - |
| 1787718684 | 15.56° C | 87% | 988.3 hPa | 0 mm | - | - | - |
| 1787717781 | 15.56° C | 87% | 988.3 hPa | 0 mm | - | - | - |
| 1787716885 | 16.11° C | 87% | 988.3 hPa | 0 mm | - | - | - |
| 1787715984 | 16.11° C | 85% | 987.1 hPa | 0 mm | - | - | - |
| 1787715085 | 16.11° C | 87% | 988.6 hPa | 0 mm | - | - | - |
| 1787714185 | 17.22° C | 87% | 988.6 hPa | 0 mm | - | - | - |
| 1787713284 | 17.22° C | 87% | 988.6 hPa | 0 mm | - | - | - |
| 1787712382 | 17.22° C | 84% | 988.7 hPa | 0 mm | - | - | - |
| 1787711484 | 17.78° C | 85% | 989 hPa | 0 mm | - | - | - |
| 1787710583 | 18.33° C | 85% | 989 hPa | 0 mm | - | - | - |
* Rain latest hour (hover to see other rain measurements)
** Current wind speed in m/s (hover to see current wind gust speed)